ADDS METAR Data INFO
IDs: Format: Raw Decoded Include TAF

Data at: 1057 UTC 18 Aug 2017

KBYY 181055Z AUTO 00000KT 10SM CLR 25/25 A2999 RMK AO2 T02520247
KBYY 181035Z AUTO 18003KT 10SM CLR 25/24 A2999 RMK AO2 T02530247
KBYY 181015Z AUTO 00000KT 10SM SCT020 SCT029 25/24 A3000 RMK AO2 T02550247
KBYY 180955Z AUTO 00000KT 10SM SCT020 SCT025 25/25 A3000 RMK AO2 T02570250
KBYY 180935Z AUTO 00000KT 10SM CLR 25/25 A3000 RMK AO2 T02580251
KBYY 180915Z AUTO 17003KT 10SM CLR 25/25 A2999 RMK AO2 T02570251
KBYY 180855Z AUTO 16005KT 10SM CLR 25/25 A2999 RMK AO2 T02550248
KBYY 180835Z AUTO 17004KT 10SM CLR 25/24 A3000 RMK AO2 T02550247
KBYY 180815Z AUTO 00000KT 10SM CLR 25/25 A3001 RMK AO2 T02570249
KBYY 180755Z AUTO 00000KT 10SM CLR 25/24 A3001 RMK AO2 T02580248
KBYY 180735Z AUTO 00000KT 10SM SCT018 SCT029 26/25 A3002 RMK AO2 T02600250
KBYY 180715Z AUTO 14003KT 10SM BKN020 BKN029 25/25 A3002 RMK AO2 T02570249
KBYY 180655Z AUTO 00000KT 10SM SCT022 25/25 A3002 RMK AO2 T02560247
KBYY 180635Z AUTO 00000KT 10SM SCT019 25/24 A3003 RMK AO2 T02600249
KBYY 180615Z AUTO 16003KT 10SM CLR 26/25 A3003 RMK AO2 T02600249
KBYY 180555Z AUTO 17004KT 10SM CLR 26/25 A3003 RMK AO2 T02590249
KBYY 180535Z AUTO 14004KT 10SM CLR 26/25 A3003 RMK AO2 T02590248
KBYY 180515Z AUTO 00000KT 10SM CLR 26/25 A3004 RMK AO2 T02610249
KBYY 180455Z AUTO 14003KT 10SM CLR 26/25 A3003 RMK AO2 T02620250
KBYY 180435Z AUTO 14003KT 10SM CLR 26/25 A3003 RMK AO2 T02600250
KBYY 180415Z AUTO 00000KT 10SM CLR 26/25 A3003 RMK AO2 T02590247
KBYY 180355Z AUTO 00000KT 10SM CLR 26/25 A3003 RMK AO2 T02630248
KBYY 180335Z AUTO 00000KT 10SM CLR 26/25 A3003 RMK AO2 T02660249
KBYY 180320Z AUTO 00000KT 10SM CLR 26/25 A3002 RMK AO2 T02690251
KBYY 180255Z AUTO 00000KT 10SM CLR 26/25 A3001 RMK AO2 T02700249
KBYY 180235Z AUTO 13003KT 10SM CLR 27/25 A3000 RMK AO2 T02710249
KBYY 180215Z AUTO 00000KT 10SM SCT021 27/25 A3000 RMK AO2 T02740249
KBYY 180155Z AUTO 00000KT 10SM SCT021 27/25 A2999 RMK AO2 T02800250
KBYY 180135Z AUTO 00000KT 10SM CLR 28/25 A2998 RMK AO2 T02830250
KBYY 180115Z AUTO 16004KT 10SM CLR 28/25 A2998 RMK AO2 T02880250
KBYY 180055Z AUTO 17005KT 10SM CLR 29/25 A2997 RMK AO2 T02980248
KBYY 180035Z AUTO 17006KT 10SM CLR 30/24 A2997 RMK AO2 T03060245
KBYY 180015Z AUTO 17008KT 10SM CLR 31/24 A2997 RMK AO2 T03100243
KBYY 172355Z AUTO 17007KT 10SM CLR 31/24 A2996 RMK AO2 T03140246
KBYY 172335Z AUTO 18009KT 10SM CLR 31/24 A2997 RMK AO2 T03190245
KBYY 172315Z AUTO 18007KT 10SM CLR 32/24 A2997 RMK AO2 T03230241
KBYY 172255Z AUTO 17010KT 10SM CLR 32/23 A2998 RMK AO2 T03260235
KBYY 172235Z AUTO 17009KT 10SM CLR 32/23 A2998 RMK AO2 T03300234
KBYY 172215Z AUTO 17009G14KT 7SM CLR 32/23 A2999 RMK AO2 T03300235
KBYY 172155Z AUTO 17010G17KT 10SM SCT037 33/23 A2999 RMK AO2 T03310235
KBYY 172135Z AUTO 17008G14KT 10SM SCT037 33/23 A3000 RMK AO2 T03330234
KBYY 172115Z AUTO 18009KT 10SM SCT038 33/23 A3001 RMK AO2 T03310234
KBYY 172055Z AUTO 16011KT 10SM SCT036 SCT044 33/23 A3001 RMK AO2 T03350241
KBYY 172035Z AUTO 17010KT 10SM BKN036 BKN042 33/24 A3002 RMK AO2 T03340239
KBYY 172015Z AUTO 20011KT 10SM BKN034 BKN042 33/24 A3003 RMK AO2 T03360244
KBYY 171955Z AUTO 17008KT 10SM SCT034 SCT040 33/25 A3003 RMK AO2 T03350246
KBYY 171935Z AUTO 19010KT 10SM SCT034 BKN040 BKN046 33/24 A3004 RMK AO2 T03330245
KBYY 171915Z AUTO 19011G16KT 10SM SCT033 SCT040 33/24 A3004 RMK AO2 T03340244
KBYY 171855Z AUTO 18008KT 10SM SCT033 33/24 A3005 RMK AO2 T03340245
KBYY 171835Z AUTO 21010KT 10SM SCT035 BKN043 33/24 A3005 RMK AO2 T03340246
KBYY 171815Z AUTO 17012KT 10SM BKN035 BKN043 33/25 A3005 RMK AO2 T03340247
KBYY 171755Z AUTO 21012KT 10SM BKN035 BKN042 33/25 A3006 RMK AO2 T03350245
KBYY 171735Z AUTO 18009G14KT 10SM SCT035 33/24 A3006 RMK AO2 T03340244
KBYY 171715Z AUTO 21006G09KT 10SM SCT035 SCT043 33/24 A3006 RMK AO2 T03340244
KBYY 171655Z AUTO 19009KT 10SM BKN035 BKN043 33/24 A3006 RMK AO2 T03320242
KBYY 171635Z AUTO 20008G14KT 10SM SCT031 32/24 A3006 RMK AO2 T03300241
KBYY 171615Z AUTO 19007KT 10SM SCT031 32/23 A3007 RMK AO2 T03270242
KBYY 171555Z AUTO 18008KT 10SM SCT031 32/24 A3006 RMK AO2 T03210240
KBYY 171535Z AUTO 20010KT 10SM SCT029 32/23 A3006 RMK AO2 T03220239
KBYY 171515Z AUTO 21010KT 10SM SCT029 32/24 A3006 RMK AO2 T03190241
KBYY 171455Z AUTO 20010KT 10SM SCT027 31/23 A3005 RMK AO2 T03140241
KBYY 171435Z AUTO 20010KT 10SM SCT023 SCT033 31/24 A3004 RMK AO2 T03130249
KBYY 171415Z AUTO 21007KT 10SM BKN021 BKN033 31/26 A3003 RMK AO2 T03070259
KBYY 171355Z AUTO 21005KT 7SM CLR 30/26 A3003 RMK AO2 T02980260
KBYY 171335Z AUTO 19004KT 10SM CLR 28/26 A3003 RMK AO2 T02880256
KBYY 171315Z AUTO 17003KT 7SM CLR 28/25 A3002 RMK AO2 T02780254
KBYY 171255Z AUTO 00000KT 7SM CLR 27/25 A3002 RMK AO2 T02700252
KBYY 171235Z AUTO 00000KT 7SM SCT024 SCT029 26/25 A3002 RMK AO2 T02660249
KBYY 171215Z AUTO 00000KT 7SM SCT024 SCT029 26/25 A3002 RMK AO2 T02660248
KBYY 171155Z AUTO 21003KT 10SM CLR 26/25 A3002 RMK AO2 T02690247
KBYY 171135Z AUTO 20004KT 10SM CLR 27/25 A3001 RMK AO2 T02720248
KBYY 171115Z AUTO 20005KT 10SM CLR 27/25 A3000 RMK AO2 T02730249
KBYY 171055Z AUTO 19005KT 10SM CLR 27/25 A3000 RMK AO2 T02750251
KBYY 171035Z AUTO 19006KT 10SM CLR 27/25 A2999 RMK AO2 T02760254
KBYY 171015Z AUTO 19004KT 10SM SCT022 SCT028 27/25 A3000 RMK AO2 T02780254
KBYY 170955Z AUTO 19006KT 10SM SCT022 SCT028 27/25 A3000 RMK AO2 T02810255
KBYY 170935Z AUTO 19006KT 10SM SCT023 28/25 A3000 RMK AO2 T02820252
KBYY 170915Z AUTO 18007KT 10SM CLR 28/25 A2999 RMK AO2 T02840252
KBYY 170855Z AUTO 18009KT 10SM CLR 28/25 A2999 RMK AO2 T02850255
KBYY 170835Z AUTO 18009KT 10SM CLR 28/25 A2999 RMK AO2 T02850256
KBYY 170815Z AUTO 18009KT 10SM SCT020 28/25 A2999 RMK AO2 T02850257
KBYY 170755Z AUTO 18009KT 10SM SCT020 28/25 A2999 RMK AO2 T02860259
KBYY 170735Z AUTO 17009KT 7SM SCT020 BKN036 28/26 A2999 RMK AO2 T02870260
KBYY 170715Z AUTO 18009KT 10SM SCT024 SCT029 SCT035 28/26 A3000 RMK AO2 T02870260
KBYY 170655Z AUTO 17009KT 10SM SCT022 SCT032 28/26 A2999 RMK AO2 T02860262
KBYY 170635Z AUTO 18009KT 10SM SCT020 SCT031 28/26 A2998 RMK AO2 T02850262
KBYY 170615Z AUTO 18008KT 10SM CLR 28/26 A2998 RMK AO2 T02850262
KBYY 170555Z AUTO 17009KT 7SM SCT022 SCT029 28/26 A2998 RMK AO2 T02850262
KBYY 170535Z AUTO 16009KT 7SM SCT020 SCT026 SCT031 28/26 A2998 RMK AO2 T02850265
KBYY 170515Z AUTO 16008KT 7SM SCT020 SCT031 28/26 A2998 RMK AO2 T02840263
KBYY 170455Z AUTO 16008KT 2 1/2SM BR CLR 28/26 A2998 RMK AO2 VIS 1/2V5 T02810265
KBYY 170435Z AUTO 16006KT 7SM SCT020 SCT029 SCT034 27/26 A2997 RMK AO2 T02800265
KBYY 170415Z AUTO 16005KT 7SM CLR 27/26 A2998 RMK AO2 T02800265
KBYY 170355Z AUTO 15004KT 7SM CLR 28/26 A2998 RMK AO2 T02810265
KBYY 170335Z AUTO 16005KT 7SM CLR 28/26 A2998 RMK AO2 T02800265
KBYY 170315Z AUTO 17005KT 7SM CLR 27/26 A2998 RMK AO2 T02800265
KBYY 170255Z AUTO 16005KT 7SM SCT021 SCT036 SCT046 27/26 A2998 RMK AO2 T02790264
KBYY 170235Z AUTO 14005KT 10SM BKN021 BKN030 BKN036 27/26 A2997 RMK AO2 T02780262
KBYY 170215Z AUTO 13004KT 10SM SCT019 SCT024 SCT036 27/26 A2996 RMK AO2 T02770260
KBYY 170155Z AUTO 13003KT 10SM SCT021 SCT035 SCT044 28/26 A2995 RMK AO2 T02830260
KBYY 170135Z AUTO 15007KT 10SM SCT060 28/25 A2995 RMK AO2 T02850253
KBYY 170115Z AUTO 15006KT 10SM SCT060 28/25 A2995 RMK AO2 T02870248
KBYY 170055Z AUTO 15007KT 10SM SCT050 SCT065 28/25 A2995 RMK AO2 T02920252
KBYY 170035Z AUTO 15010KT 10SM SCT025 SCT041 BKN050 30/25 A2995 RMK AO2 T03030255
KBYY 170015Z AUTO 17011KT 10SM SCT025 SCT039 SCT050 30/26 A2995 RMK AO2 T03050260
KBYY 162355Z AUTO 17007KT 10SM SCT025 SCT039 SCT050 30/26 A2994 RMK AO2 T03030263
KBYY 162335Z AUTO 15011G17KT 7SM -RA SCT025 SCT037 SCT045 31/26 A2995 RMK AO2 T03170258
KBYY 162315Z AUTO 17010G15KT 10SM SCT055 31/25 A2995 RMK AO2 T03190252